Time;durP1;ratioP1;P1;durP2;ratioP2;P2;SDS_P1;SDS_P2;PMS_P1;PMS_P2;Temp;Humidity;BMP_temperature;BMP_pressure;BME280_temperature;BME280_humidity;BME280_pressure;Samples;Min_cycle;Max_cycle;Signal;HPM_P1;HPM_P2
2023/12/30 00:01:21;;;;;;;14.67;3.20;;;;;;;6.48;100.00;98862.84;5010304;28;20037;-87
2023/12/30 00:03:47;;;;;;;8.25;1.83;;;;;;;6.40;100.00;98870.91;5014866;28;20260;-86
2023/12/30 00:06:15;;;;;;;10.80;2.60;;;;;;;6.40;100.00;98930.03;5036626;28;20037;-86
2023/12/30 00:08:41;;;;;;;6.68;2.05;;;;;;;6.42;100.00;98914.78;5018297;28;20036;-87
2023/12/30 00:11:06;;;;;;;10.20;1.88;;;;;;;6.41;100.00;98922.88;5024883;28;20037;-86
2023/12/30 00:13:32;;;;;;;6.87;2.23;;;;;;;6.40;100.00;98940.63;5016791;28;20030;-86
2023/12/30 00:15:57;;;;;;;8.43;1.80;;;;;;;6.37;100.00;98950.75;5022583;28;20044;-86
2023/12/30 00:18:23;;;;;;;8.47;1.67;;;;;;;6.32;100.00;98938.88;5041290;28;20029;-87
2023/12/30 00:20:48;;;;;;;20.50;4.63;;;;;;;6.44;100.00;98972.88;5052344;23;20708;-74
2023/12/30 00:23:13;;;;;;;10.27;2.08;;;;;;;6.41;100.00;98962.66;5047113;28;20027;-74
2023/12/30 00:25:39;;;;;;;12.50;2.10;;;;;;;6.59;100.00;98973.75;5060826;28;20540;-76
2023/12/30 00:28:04;;;;;;;6.40;1.83;;;;;;;6.62;100.00;98952.19;5049779;28;20060;-73
2023/12/30 00:30:32;;;;;;;8.32;1.60;;;;;;;6.54;100.00;98909.84;5017214;28;20025;-75
2023/12/30 00:32:58;;;;;;;13.52;2.10;;;;;;;6.40;100.00;98905.34;5016131;28;20037;-75
2023/12/30 00:35:23;;;;;;;6.30;1.47;;;;;;;6.36;100.00;98901.41;5029496;28;20033;-75
2023/12/30 00:37:48;;;;;;;4.93;1.13;;;;;;;6.51;100.00;98921.63;5047575;28;20283;-73
2023/12/30 00:40:14;;;;;;;8.80;1.40;;;;;;;6.37;100.00;98872.09;5012653;28;20033;-74
2023/12/30 00:42:39;;;;;;;4.50;1.15;;;;;;;6.25;100.00;98836.41;5025774;28;20045;-74
2023/12/30 00:45:05;;;;;;;8.35;2.03;;;;;;;6.34;100.00;98832.66;5008985;28;20059;-74
2023/12/30 00:47:31;;;;;;;7.05;1.38;;;;;;;6.03;100.00;98753.34;5028683;28;20094;-75
2023/12/30 00:49:56;;;;;;;9.27;0.90;;;;;;;6.10;100.00;98775.47;5052214;28;20029;-75
2023/12/30 00:52:22;;;;;;;2.93;1.23;;;;;;;6.17;100.00;98794.91;5031088;28;20037;-75
2023/12/30 00:54:47;;;;;;;6.30;0.75;;;;;;;6.04;100.00;98774.38;5046907;28;20041;-75
2023/12/30 00:57:12;;;;;;;3.60;1.08;;;;;;;6.07;100.00;98751.97;5029203;28;20047;-75
2023/12/30 00:59:38;;;;;;;4.03;1.03;;;;;;;6.16;100.00;98768.59;5021066;28;20135;-75
2023/12/30 01:02:03;;;;;;;2.67;1.30;;;;;;;6.15;100.00;98777.56;5028590;28;20075;-75
2023/12/30 01:04:29;;;;;;;;;;;;;;;6.13;100.00;98809.53;5045922;28;20480;-75
2023/12/30 01:06:55;;;;;;;6.13;1.35;;;;;;;6.08;100.00;98820.66;5028570;28;19923;-75
2023/12/30 01:09:20;;;;;;;5.53;1.23;;;;;;;5.96;100.00;98858.38;5028355;28;20039;-73
2023/12/30 01:11:45;;;;;;;5.80;0.87;;;;;;;6.13;100.00;98957.91;5027696;28;20279;-75
2023/12/30 01:14:11;;;;;;;3.03;0.60;;;;;;;6.07;100.00;99016.91;5028836;28;20045;-75
2023/12/30 01:16:37;;;;;;;5.43;1.30;;;;;;;6.05;100.00;99074.56;5012484;28;20080;-75
2023/12/30 01:19:02;;;;;;;7.23;1.50;;;;;;;5.95;100.00;99116.31;5009221;28;20065;-75
2023/12/30 01:21:28;;;;;;;3.00;0.75;;;;;;;5.93;100.00;99217.94;5036849;28;20298;-75
2023/12/30 01:23:53;;;;;;;7.47;1.05;;;;;;;5.74;100.00;99300.44;5036766;28;20053;-75
2023/12/30 01:26:19;;;;;;;9.23;1.27;;;;;;;5.67;100.00;99390.28;5029116;28;20502;-75
2023/12/30 01:28:44;;;;;;;8.27;1.47;;;;;;;5.62;100.00;99471.19;5035985;28;20041;-74
2023/12/30 01:31:11;;;;;;;5.97;1.40;;;;;;;5.53;100.00;99478.31;5012772;28;20278;-75
2023/12/30 01:33:36;;;;;;;5.10;0.93;;;;;;;5.45;100.00;99504.72;5046534;28;20028;-75
2023/12/30 01:36:03;;;;;;;3.92;1.48;;;;;;;5.06;100.00;99497.31;5033654;28;20507;-75
2023/12/30 01:38:28;;;;;;;7.05;0.93;;;;;;;5.14;100.00;99538.84;5012421;28;20086;-76
2023/12/30 01:40:55;;;;;;;3.43;1.37;;;;;;;5.17;100.00;99572.91;5033540;28;20025;-76
2023/12/30 01:43:30;;;;;;;3.67;0.95;;;;;;;5.08;100.00;99564.94;5006006;28;20029;-76
2023/12/30 01:45:59;;;;;;;2.05;0.52;;;;;;;4.79;100.00;99522.91;5028475;28;20073;-76
2023/12/30 01:48:27;;;;;;;5.60;0.88;;;;;;;4.89;100.00;99564.28;5025134;28;20472;-76
2023/12/30 01:50:57;;;;;;;3.42;0.95;;;;;;;4.73;100.00;99543.84;5012611;28;20495;-76
2023/12/30 01:53:24;;;;;;;2.90;0.82;;;;;;;4.76;100.00;99565.53;5028310;28;20037;-76
2023/12/30 01:55:50;;;;;;;3.63;0.63;;;;;;;4.78;100.00;99574.16;5031899;28;20029;-77
2023/12/30 01:58:17;;;;;;;4.32;0.57;;;;;;;4.53;100.00;99544.03;5025769;28;20814;-77
2023/12/30 02:00:46;;;;;;;3.50;0.50;;;;;;;4.61;100.00;99573.19;5036719;28;20449;-77
2023/12/30 02:03:11;;;;;;;3.40;0.55;;;;;;;4.75;100.00;99608.00;5012265;28;20041;-77
2023/12/30 02:05:38;;;;;;;0.20;0.20;;;;;;;4.69;100.00;99571.59;5038545;28;20068;-77
2023/12/30 02:08:04;;;;;;;1.55;0.50;;;;;;;4.74;100.00;99586.00;5028506;28;20095;-77
2023/12/30 02:10:29;;;;;;;0.85;0.30;;;;;;;4.82;100.00;99590.53;5046261;28;20028;-77
2023/12/30 02:12:55;;;;;;;0.73;0.30;;;;;;;4.85;100.00;99577.84;5034263;28;20730;-77
2023/12/30 02:15:21;;;;;;;1.70;0.30;;;;;;;4.85;100.00;99585.78;5028003;28;20060;-76
2023/12/30 02:17:51;;;;;;;4.70;0.75;;;;;;;4.81;100.00;99581.78;5002530;28;20443;-76
2023/12/30 02:20:17;;;;;;;3.28;0.70;;;;;;;4.63;100.00;99555.34;5017266;28;20043;-76
2023/12/30 02:22:46;;;;;;;1.73;0.35;;;;;;;4.75;100.00;99573.63;5012980;28;20029;-76
2023/12/30 02:25:12;;;;;;;7.82;0.40;;;;;;;4.73;100.00;99583.50;5029823;28;20155;-76
2023/12/30 02:27:37;;;;;;;1.00;0.22;;;;;;;4.81;100.00;99600.28;5013703;28;20546;-76
2023/12/30 02:30:03;;;;;;;0.52;0.30;;;;;;;4.75;100.00;99600.91;5013424;28;20384;-76
2023/12/30 02:32:29;;;;;;;1.85;0.47;;;;;;;4.71;100.00;99606.66;5005925;28;20048;-76
2023/12/30 02:34:55;;;;;;;1.75;0.30;;;;;;;4.63;100.00;99608.22;5046632;28;20033;-76
2023/12/30 02:37:20;;;;;;;2.40;0.73;;;;;;;4.60;100.00;99616.47;5012862;28;20608;-77
2023/12/30 02:39:46;;;;;;;1.63;0.47;;;;;;;4.65;100.00;99653.03;5013446;28;20624;-77
2023/12/30 02:42:11;;;;;;;1.17;0.87;;;;;;;4.71;100.00;99654.25;5013595;28;20459;-77
2023/12/30 02:44:36;;;;;;;2.25;0.30;;;;;;;4.57;100.00;99658.25;5029585;28;20040;-74
2023/12/30 02:47:02;;;;;;;3.90;0.40;;;;;;;4.55;100.00;99668.97;5066660;22;20140;-76
2023/12/30 02:49:28;;;;;;;1.20;0.60;;;;;;;4.38;100.00;99667.13;5073851;28;20031;-76
2023/12/30 02:51:54;;;;;;;1.55;0.55;;;;;;;4.16;100.00;99608.44;5036890;28;20028;-76
2023/12/30 02:54:19;;;;;;;1.10;0.47;;;;;;;4.21;100.00;99650.25;5074924;28;20375;-76
2023/12/30 02:56:45;;;;;;;4.80;0.30;;;;;;;4.27;100.00;99670.00;5054658;28;20287;-77
2023/12/30 02:59:10;;;;;;;2.35;0.32;;;;;;;4.22;100.00;99673.91;5070193;28;20037;-78
2023/12/30 03:01:37;;;;;;;3.28;0.75;;;;;;;4.26;100.00;99668.31;5066046;28;20081;-79
2023/12/30 03:04:03;;;;;;;2.78;0.40;;;;;;;4.35;100.00;99672.69;5054692;28;20523;-78
2023/12/30 03:06:28;;;;;;;;;;;;;;;4.38;100.00;99683.00;5063261;28;20029;-78
2023/12/30 03:08:54;;;;;;;5.13;0.80;;;;;;;4.19;100.00;99668.91;5054249;28;19919;-78
2023/12/30 03:11:20;;;;;;;4.88;1.17;;;;;;;4.31;100.00;99703.91;5054678;28;20078;-78
2023/12/30 03:13:46;;;;;;;8.75;0.88;;;;;;;4.17;100.00;99688.53;5068379;28;20527;-78
2023/12/30 03:16:14;;;;;;;2.00;0.85;;;;;;;4.25;100.00;99720.31;5054329;28;20043;-79
2023/12/30 03:18:40;;;;;;;5.07;0.60;;;;;;;4.17;100.00;99707.03;5069870;28;20044;-78
2023/12/30 03:21:07;;;;;;;1.00;0.40;;;;;;;4.26;100.00;99694.72;5070025;28;20037;-79
2023/12/30 03:23:34;;;;;;;4.07;0.60;;;;;;;4.27;100.00;99688.47;5053646;28;20028;-78
2023/12/30 03:26:00;;;;;;;3.33;0.95;;;;;;;4.31;100.00;99703.03;5059243;28;20390;-79
2023/12/30 03:28:26;;;;;;;;;;;;;;;4.20;100.00;99694.34;5069305;28;20402;-79
2023/12/30 03:30:52;;;;;;;2.20;0.50;;;;;;;4.25;100.00;99696.53;5071115;28;19962;-78
2023/12/30 03:33:17;;;;;;;6.90;0.50;;;;;;;4.30;100.00;99685.53;5053559;28;20055;-78
2023/12/30 03:35:43;;;;;;;2.38;0.75;;;;;;;4.23;100.00;99688.75;5070703;28;20091;-78
2023/12/30 03:38:08;;;;;;;2.60;0.95;;;;;;;4.22;100.00;99689.75;5072196;28;20492;-78
2023/12/30 03:40:34;;;;;;;6.20;1.05;;;;;;;4.24;100.00;99697.53;5062765;28;20546;-78
2023/12/30 03:43:00;;;;;;;6.88;1.55;;;;;;;4.28;100.00;99705.97;5070775;28;20036;-78
2023/12/30 03:45:25;;;;;;;4.35;0.45;;;;;;;4.34;100.00;99705.41;5070871;28;20044;-78
2023/12/30 03:47:52;;;;;;;2.63;0.50;;;;;;;4.39;100.00;99703.16;5054645;28;20115;-80
2023/12/30 03:50:17;;;;;;;2.47;0.52;;;;;;;4.42;100.00;99706.34;5070746;28;20048;-79
2023/12/30 03:52:43;;;;;;;2.47;0.52;;;;;;;4.39;100.00;99705.78;5054080;28;20502;-79
2023/12/30 03:55:08;;;;;;;1.52;0.43;;;;;;;4.34;100.00;99713.34;5070509;28;20028;-79
2023/12/30 03:57:34;;;;;;;2.30;0.43;;;;;;;4.28;100.00;99693.59;5067986;28;20032;-79
2023/12/30 04:00:00;;;;;;;5.57;0.83;;;;;;;4.41;100.00;99711.75;5065119;28;20033;-78
2023/12/30 04:02:25;;;;;;;;;;;;;;;4.54;100.00;99720.19;5052082;28;20287;-79
2023/12/30 04:04:51;;;;;;;4.90;0.93;;;;;;;4.46;100.00;99709.50;5053392;28;19916;-78
2023/12/30 04:07:16;;;;;;;2.23;0.70;;;;;;;4.53;100.00;99713.22;5053993;28;20083;-79
2023/12/30 04:09:42;;;;;;;1.88;0.50;;;;;;;4.57;100.00;99714.59;5068462;28;20357;-79
2023/12/30 04:12:09;;;;;;;;;;;;;;;4.52;100.00;99716.84;5050484;28;20479;-78
2023/12/30 04:14:35;;;;;;;6.03;0.70;;;;;;;4.47;100.00;99728.81;5068923;28;20337;-77
2023/12/30 04:17:00;;;;;;;7.80;0.88;;;;;;;4.51;100.00;99733.66;5071256;28;20090;-78
2023/12/30 04:19:26;;;;;;;7.38;0.70;;;;;;;4.50;100.00;99717.97;5053082;28;20132;-78
2023/12/30 04:21:52;;;;;;;5.03;1.00;;;;;;;4.43;100.00;99707.16;5051876;28;20048;-78
2023/12/30 04:24:18;;;;;;;;;;;;;;;4.39;100.00;99711.06;5068831;28;20615;-79
2023/12/30 04:26:43;;;;;;;4.60;1.23;;;;;;;4.46;100.00;99712.16;5053581;28;19922;-79
2023/12/30 04:29:11;;;;;;;4.85;0.65;;;;;;;4.24;100.00;99694.91;5053968;28;20040;-78
2023/12/30 04:31:37;;;;;;;4.47;0.82;;;;;;;4.29;100.00;99721.69;5053373;28;20126;-78
2023/12/30 04:34:03;;;;;;;5.47;1.20;;;;;;;4.28;100.00;99716.56;5051156;28;20438;-79
2023/12/30 04:36:28;;;;;;;2.13;0.80;;;;;;;4.30;100.00;99714.59;5062982;28;20290;-78
2023/12/30 04:38:53;;;;;;;4.72;1.65;;;;;;;4.34;100.00;99721.25;5071456;28;20043;-78
2023/12/30 04:41:21;;;;;;;7.63;1.40;;;;;;;4.33;100.00;99717.78;5053346;28;20029;-79
2023/12/30 04:43:46;;;;;;;7.72;1.90;;;;;;;4.35;100.00;99718.44;5049916;28;20106;-78
2023/12/30 04:46:12;;;;;;;9.77;1.80;;;;;;;4.36;100.00;99727.25;5079132;28;20036;-78
2023/12/30 04:48:38;;;;;;;6.00;1.65;;;;;;;4.38;100.00;99730.56;5069540;28;20263;-79
2023/12/30 04:51:04;;;;;;;7.07;1.95;;;;;;;4.47;100.00;99736.75;5070021;28;20037;-79
2023/12/30 04:53:29;;;;;;;5.10;1.30;;;;;;;4.44;100.00;99740.53;5051092;28;20028;-78
2023/12/30 04:55:55;;;;;;;16.25;2.58;;;;;;;4.48;100.00;99741.91;5053700;28;20039;-78
2023/12/30 04:58:21;;;;;;;8.98;1.58;;;;;;;4.34;100.00;99727.38;5070766;28;20048;-77
2023/12/30 05:00:46;;;;;;;5.70;1.55;;;;;;;4.43;100.00;99741.53;5053730;28;20052;-77
2023/12/30 05:03:14;;;;;;;2.92;0.98;;;;;;;4.37;100.00;99735.00;5071437;28;20478;-78
2023/12/30 05:05:39;;;;;;;6.00;0.88;;;;;;;4.47;100.00;99745.50;5054420;28;20450;-78
2023/12/30 05:08:06;;;;;;;7.85;1.20;;;;;;;4.56;100.00;99751.72;5073512;28;20033;-78
2023/12/30 05:10:32;;;;;;;4.45;0.93;;;;;;;4.58;100.00;99741.84;5086923;28;20043;-78
2023/12/30 05:12:59;;;;;;;4.68;0.82;;;;;;;4.57;100.00;99740.19;5054972;28;20418;-79
2023/12/30 05:15:24;;;;;;;5.38;1.15;;;;;;;4.56;100.00;99747.28;5071138;28;20020;-78
2023/12/30 05:17:50;;;;;;;17.55;2.05;;;;;;;4.74;100.00;99755.25;5054861;28;20039;-78
2023/12/30 05:20:17;;;;;;;2.70;0.80;;;;;;;4.74;100.00;99743.84;5055748;28;20032;-78
2023/12/30 05:22:43;;;;;;;4.45;1.42;;;;;;;4.61;100.00;99752.97;5055148;28;20290;-78
2023/12/30 05:25:09;;;;;;;4.25;1.50;;;;;;;4.66;100.00;99771.03;5070231;28;20028;-77
2023/12/30 05:27:35;;;;;;;5.97;1.83;;;;;;;4.66;100.00;99771.03;5051752;28;20078;-79
2023/12/30 05:30:01;;;;;;;7.40;1.77;;;;;;;4.75;100.00;99790.44;5044475;28;20326;-77
2023/12/30 05:32:26;;;;;;;15.98;2.70;;;;;;;4.76;100.00;99786.84;5049226;28;20037;-77
2023/12/30 05:34:52;;;;;;;6.77;2.47;;;;;;;4.81;100.00;99790.69;5068238;28;20025;-77
2023/12/30 05:37:17;;;;;;;4.03;2.10;;;;;;;4.75;100.00;99795.72;5067544;28;20309;-78
2023/12/30 05:39:42;;;;;;;4.37;2.00;;;;;;;4.75;100.00;99786.00;5067328;28;20328;-78
2023/12/30 05:42:08;;;;;;;7.67;1.63;;;;;;;4.74;100.00;99784.34;5068280;28;20119;-78
2023/12/30 05:44:34;;;;;;;7.78;1.23;;;;;;;4.72;100.00;99796.88;5067441;28;20040;-78
2023/12/30 05:46:59;;;;;;;7.38;1.80;;;;;;;4.73;100.00;99803.84;5051314;28;20020;-78
2023/12/30 05:49:24;;;;;;;4.70;2.05;;;;;;;4.78;100.00;99821.91;5048145;28;20020;-77
2023/12/30 05:51:50;;;;;;;10.23;1.77;;;;;;;4.68;100.00;99816.63;5050734;28;20747;-78
2023/12/30 05:54:16;;;;;;;9.32;1.60;;;;;;;4.61;100.00;99816.41;5067299;28;20036;-78
2023/12/30 05:56:41;;;;;;;5.65;1.25;;;;;;;4.67;100.00;99825.56;5050229;28;20036;-77
2023/12/30 05:59:07;;;;;;;6.13;2.15;;;;;;;4.71;100.00;99834.88;5067395;28;20044;-78
2023/12/30 06:01:32;;;;;;;5.90;1.70;;;;;;;4.79;100.00;99834.13;5066586;28;20099;-78
2023/12/30 06:03:58;;;;;;;6.30;1.83;;;;;;;4.74;100.00;99825.81;5066646;28;20498;-77
2023/12/30 06:06:24;;;;;;;9.32;1.92;;;;;;;4.71;100.00;99834.88;5067156;28;20293;-78
2023/12/30 06:08:49;;;;;;;10.25;1.30;;;;;;;4.74;100.00;99841.69;5067498;28;20056;-77
2023/12/30 06:11:14;;;;;;;8.60;1.95;;;;;;;4.75;100.00;99845.97;5068266;28;20764;-77
2023/12/30 06:13:41;;;;;;;10.48;1.70;;;;;;;4.85;100.00;99855.53;5063607;28;20044;-77
2023/12/30 06:16:10;;;;;;;7.93;1.25;;;;;;;4.82;100.00;99854.97;5061058;28;20397;-78
2023/12/30 06:18:36;;;;;;;6.43;1.20;;;;;;;4.89;100.00;99858.72;5049824;28;20032;-77
2023/12/30 06:21:04;;;;;;;6.50;1.30;;;;;;;4.82;100.00;99865.56;5065902;28;20157;-77
2023/12/30 06:23:30;;;;;;;5.60;1.30;;;;;;;4.92;100.00;99861.06;5065668;28;20012;-77
2023/12/30 06:25:56;;;;;;;;;;;;;;;4.97;100.00;99853.53;5067635;28;20053;-77
2023/12/30 06:28:24;;;;;;;3.88;1.13;;;;;;;4.65;100.00;99841.56;5049215;28;19988;-78
2023/12/30 06:30:50;;;;;;;6.78;1.35;;;;;;;4.84;100.00;99863.59;5046343;28;20017;-77
2023/12/30 06:33:16;;;;;;;5.97;1.00;;;;;;;4.83;100.00;99852.19;5074362;28;20846;-76
2023/12/30 06:35:41;;;;;;;4.55;1.00;;;;;;;4.84;100.00;99847.75;5066052;28;21895;-78
2023/12/30 06:38:07;;;;;;;8.00;1.20;;;;;;;4.76;100.00;99834.44;5066742;28;20059;-78
2023/12/30 06:40:32;;;;;;;3.63;0.93;;;;;;;4.75;100.00;99844.19;5065593;28;20107;-78
2023/12/30 06:42:57;;;;;;;4.35;0.95;;;;;;;4.73;100.00;99853.22;5065389;28;20547;-77
2023/12/30 06:45:26;;;;;;;6.50;1.33;;;;;;;4.79;100.00;99857.94;5065773;28;20025;-77
2023/12/30 06:47:51;;;;;;;8.40;0.88;;;;;;;4.76;100.00;99842.38;5049180;28;20028;-76
2023/12/30 06:50:16;;;;;;;5.10;1.30;;;;;;;4.73;100.00;99853.22;5067156;28;20060;-76
2023/12/30 06:52:42;;;;;;;5.10;0.90;;;;;;;4.74;100.00;99863.66;5048599;28;20059;-77
2023/12/30 06:55:08;;;;;;;2.80;0.70;;;;;;;4.70;100.00;99851.69;5065490;28;20290;-77
2023/12/30 06:57:34;;;;;;;9.38;1.63;;;;;;;4.64;100.00;99863.72;5065125;28;20282;-77
2023/12/30 06:59:59;;;;;;;4.53;1.80;;;;;;;4.79;100.00;99887.03;5065363;28;20385;-77
2023/12/30 07:02:25;;;;;;;4.63;1.20;;;;;;;4.85;100.00;99912.91;5048384;28;20162;-77
2023/12/30 07:04:50;;;;;;;7.07;2.10;;;;;;;4.83;100.00;99922.78;5048560;28;20024;-77
2023/12/30 07:07:16;;;;;;;3.13;1.57;;;;;;;4.90;100.00;99939.75;5065207;28;20125;-77
2023/12/30 07:09:41;;;;;;;7.23;1.53;;;;;;;4.92;100.00;99940.44;5047912;28;20068;-78
2023/12/30 07:12:07;;;;;;;7.00;1.47;;;;;;;4.88;100.00;99938.22;5045693;28;20294;-77
2023/12/30 07:14:37;;;;;;;7.40;1.50;;;;;;;4.90;100.00;99974.13;5052973;28;20586;-79
2023/12/30 07:17:03;;;;;;;9.02;2.42;;;;;;;4.94;100.00;99988.72;5048019;28;20036;-78
2023/12/30 07:19:28;;;;;;;;;;;;;;;4.99;100.00;99990.94;5068437;28;20021;-78
2023/12/30 07:21:54;;;;;;;6.68;1.42;;;;;;;4.93;100.00;99984.41;5052099;28;19912;-79
2023/12/30 07:24:19;;;;;;;9.27;2.28;;;;;;;5.00;100.00;99997.91;5067871;28;20112;-79
2023/12/30 07:26:44;;;;;;;11.27;2.67;;;;;;;5.06;100.00;100011.38;5068677;28;20052;-79
2023/12/30 07:29:11;;;;;;;6.60;1.90;;;;;;;4.96;100.00;100002.63;5068635;28;20075;-79
2023/12/30 07:31:36;;;;;;;8.52;2.55;;;;;;;4.94;100.00;100012.53;5052228;28;20127;-79
2023/12/30 07:34:04;;;;;;;10.70;2.45;;;;;;;4.94;100.00;100031.06;5068327;28;20103;-77
2023/12/30 07:36:30;;;;;;;8.10;2.22;;;;;;;5.09;100.00;100036.72;5067781;28;20036;-78
2023/12/30 07:38:57;;;;;;;10.90;2.03;;;;;;;5.09;100.00;100028.78;5052191;28;20058;-79
2023/12/30 07:41:22;;;;;;;13.88;3.42;;;;;;;5.08;100.00;100041.19;5072544;28;20016;-80
2023/12/30 07:43:48;;;;;;;7.85;2.25;;;;;;;4.99;100.00;100026.16;5055036;28;20411;-79
2023/12/30 07:46:14;;;;;;;8.25;3.40;;;;;;;4.98;100.00;100024.47;5055615;28;20069;-79
2023/12/30 07:48:39;;;;;;;6.95;1.70;;;;;;;5.02;100.00;100033.81;5072217;28;20472;-79
2023/12/30 07:51:05;;;;;;;10.48;1.65;;;;;;;4.86;100.00;100021.19;5052787;28;20120;-79
2023/12/30 07:53:31;;;;;;;10.23;2.33;;;;;;;4.86;100.00;100007.94;5071705;28;20029;-79
2023/12/30 07:55:57;;;;;;;9.27;1.33;;;;;;;4.71;100.00;100006.75;5051985;28;20029;-80
2023/12/30 07:58:22;;;;;;;4.57;1.40;;;;;;;4.64;100.00;100014.41;5072188;28;20013;-79
2023/12/30 08:00:48;;;;;;;3.92;1.02;;;;;;;4.84;100.00;100043.47;5071649;28;20104;-79
2023/12/30 08:03:13;;;;;;;1.98;1.00;;;;;;;4.75;100.00;100044.31;5054803;28;20036;-79
2023/12/30 08:05:39;;;;;;;10.48;1.00;;;;;;;4.78;100.00;100039.59;5071557;28;20041;-79
2023/12/30 08:08:05;;;;;;;8.13;2.47;;;;;;;4.78;100.00;100049.34;5072074;28;20024;-80
2023/12/30 08:10:32;;;;;;;4.65;1.15;;;;;;;4.79;100.00;100038.59;5055502;28;20040;-79
2023/12/30 08:12:58;;;;;;;4.45;1.73;;;;;;;4.91;100.00;100054.31;5051468;28;20499;-78
2023/12/30 08:15:24;;;;;;;11.40;1.83;;;;;;;4.93;100.00;100058.47;5054728;28;20033;-80
2023/12/30 08:17:50;;;;;;;9.48;2.47;;;;;;;4.93;100.00;100068.22;5063619;28;20576;-79
2023/12/30 08:20:15;;;;;;;10.73;1.45;;;;;;;4.86;100.00;100054.72;5059752;28;20016;-79
2023/12/30 08:22:41;;;;;;;8.27;2.20;;;;;;;4.85;100.00;100051.25;5071297;28;20072;-78
2023/12/30 08:25:10;;;;;;;8.10;2.20;;;;;;;4.88;100.00;100059.88;5053080;28;20103;-78
2023/12/30 08:27:36;;;;;;;13.70;2.65;;;;;;;4.86;100.00;100067.97;5071360;28;20048;-79
2023/12/30 08:30:02;;;;;;;12.70;2.92;;;;;;;4.90;100.00;100071.16;5055301;28;20020;-78
2023/12/30 08:32:28;;;;;;;6.10;1.40;;;;;;;4.94;100.00;100073.38;5053243;28;20037;-79
2023/12/30 08:34:54;;;;;;;5.45;1.65;;;;;;;4.95;100.00;100071.56;5070742;28;20517;-79
2023/12/30 08:37:20;;;;;;;6.78;2.00;;;;;;;5.04;100.00;100081.28;5069667;28;20033;-79
2023/12/30 08:39:46;;;;;;;11.43;1.40;;;;;;;5.03;100.00;100080.47;5053768;28;20129;-79
2023/12/30 08:42:11;;;;;;;10.25;3.30;;;;;;;4.94;100.00;100062.81;5051515;28;20044;-79
2023/12/30 08:44:43;;;;;;;7.13;1.92;;;;;;;5.01;100.00;100077.13;5070857;28;20041;-78
2023/12/30 08:47:12;;;;;;;9.27;1.67;;;;;;;5.00;100.00;100088.66;5079410;23;20036;-83
2023/12/30 08:49:38;;;;;;;12.00;2.40;;;;;;;5.04;100.00;100099.81;5076298;28;20024;-84
2023/12/30 08:52:04;;;;;;;7.15;1.52;;;;;;;4.96;100.00;100089.91;5063864;28;20127;-84
2023/12/30 08:54:31;;;;;;;6.63;1.90;;;;;;;4.91;100.00;100091.34;5076789;28;20032;-86
2023/12/30 08:56:56;;;;;;;;;;;;;;;4.79;100.00;100080.91;5039057;28;20483;-85
2023/12/30 08:59:23;;;;;;;5.22;1.35;;;;;;;4.85;100.00;100093.56;5035605;28;19916;-85
2023/12/30 09:01:48;;;;;;;13.73;2.25;;;;;;;5.03;100.00;100122.81;5030866;28;20419;-84
2023/12/30 09:04:14;;;;;;;8.37;1.70;;;;;;;4.95;100.00;100116.53;5053098;28;20016;-83
2023/12/30 09:06:39;;;;;;;7.05;1.73;;;;;;;4.99;100.00;100116.13;5031842;28;20845;-84
2023/12/30 09:09:05;;;;;;;7.87;2.20;;;;;;;5.13;100.00;100129.84;5039556;28;20040;-83
2023/12/30 09:11:34;;;;;;;7.43;1.75;;;;;;;5.06;100.00;100127.81;5072875;28;20043;-84
2023/12/30 09:14:00;;;;;;;8.13;1.15;;;;;;;5.12;100.00;100125.56;5052417;28;20025;-84
2023/12/30 09:16:25;;;;;;;5.85;1.15;;;;;;;5.23;100.00;100134.16;5053856;28;20046;-84
2023/12/30 09:18:51;;;;;;;7.07;1.20;;;;;;;4.91;100.00;100108.03;5055939;28;20040;-83
2023/12/30 09:21:16;;;;;;;7.57;1.67;;;;;;;5.20;100.00;100136.28;5054481;28;20044;-83
2023/12/30 09:23:41;;;;;;;3.93;1.20;;;;;;;4.95;100.00;100125.31;5045894;28;20052;-83
2023/12/30 09:26:07;;;;;;;10.63;2.20;;;;;;;5.18;100.00;100140.88;5045122;28;20306;-85
2023/12/30 09:28:33;;;;;;;6.90;1.85;;;;;;;5.21;100.00;100140.59;5038782;28;20078;-83
2023/12/30 09:30:59;;;;;;;11.25;1.33;;;;;;;5.19;100.00;100158.41;5043224;28;20032;-83
2023/12/30 09:33:24;;;;;;;12.88;2.83;;;;;;;5.16;100.00;100158.72;5051947;28;20077;-83
2023/12/30 09:35:54;;;;;;;7.47;2.03;;;;;;;5.26;100.00;100184.16;5041460;28;20793;-83
2023/12/30 09:38:23;;;;;;;8.30;1.33;;;;;;;5.23;100.00;100175.69;5053518;28;20067;-84
2023/12/30 09:40:50;;;;;;;8.45;2.17;;;;;;;5.01;100.00;100163.56;5041560;28;20518;-84
2023/12/30 09:43:22;;;;;;;14.77;2.10;;;;;;;5.07;100.00;100165.66;5063503;28;20214;-84
2023/12/30 09:45:49;;;;;;;8.65;1.55;;;;;;;5.33;100.00;100202.97;5045559;28;20043;-83
2023/12/30 09:48:16;;;;;;;7.25;1.88;;;;;;;5.22;100.00;100187.22;5029564;28;20055;-84
2023/12/30 09:50:41;;;;;;;3.83;1.95;;;;;;;5.17;100.00;100198.25;5051274;28;20075;-82
2023/12/30 09:53:07;;;;;;;7.07;1.50;;;;;;;5.31;100.00;100212.84;5060431;28;20029;-83
2023/12/30 09:55:32;;;;;;;10.00;1.30;;;;;;;5.53;100.00;100224.13;5053427;28;20032;-83
2023/12/30 09:57:58;;;;;;;6.43;1.23;;;;;;;6.15;100.00;100251.84;5038863;28;20032;-83
2023/12/30 10:00:25;;;;;;;3.30;1.30;;;;;;;7.34;100.00;100276.50;5047722;28;20285;-83
2023/12/30 10:02:51;;;;;;;10.15;1.70;;;;;;;7.64;100.00;100162.00;5040581;28;20024;-84
2023/12/30 10:05:16;;;;;;;;;;;;;;;7.87;100.00;100096.66;5044445;28;20039;-84
2023/12/30 10:07:42;;;;;;;2.75;0.80;;;;;;;8.65;100.00;100071.56;5041853;28;19909;-84
2023/12/30 10:10:08;;;;;;;3.17;0.70;;;;;;;8.89;100.00;99964.22;5069078;28;20074;-85
2023/12/30 10:12:33;;;;;;;6.30;1.02;;;;;;;8.43;100.00;99836.31;5063571;28;20491;-85
2023/12/30 10:14:58;;;;;;;5.57;1.30;;;;;;;7.51;100.00;99714.34;5068489;28;20118;-84
2023/12/30 10:17:25;;;;;;;2.60;0.80;;;;;;;6.80;100.00;99771.53;5066903;28;20032;-84
2023/12/30 10:19:50;;;;;;;4.30;1.10;;;;;;;6.50;100.00;99808.22;5048694;28;20058;-84
2023/12/30 10:22:15;;;;;;;2.77;0.83;;;;;;;6.19;100.00;99839.72;5070609;28;20098;-83
2023/12/30 10:24:42;;;;;;;3.08;0.82;;;;;;;6.06;100.00;99892.28;5052614;28;20037;-84
2023/12/30 10:27:08;;;;;;;;;;;;;;;6.13;100.00;99946.34;5042532;28;20034;-84
2023/12/30 10:29:34;;;;;;;4.38;0.98;;;;;;;5.88;100.00;99954.06;5038353;28;19920;-84
2023/12/30 10:32:04;;;;;;;3.67;0.98;;;;;;;5.72;100.00;99983.03;5032634;28;20419;-84
2023/12/30 10:34:31;;;;;;;3.80;1.10;;;;;;;5.76;100.00;100018.84;5041824;28;20923;-85
2023/12/30 10:36:59;;;;;;;5.35;0.80;;;;;;;5.63;100.00;100032.44;5045918;28;20099;-85
2023/12/30 10:39:25;;;;;;;5.95;1.00;;;;;;;5.63;100.00;100060.72;5046786;28;20071;-85
2023/12/30 10:41:50;;;;;;;;;;;;;;;5.69;100.00;100107.81;5036715;28;20031;-83
2023/12/30 10:44:16;;;;;;;8.02;2.25;;;;;;;5.75;100.00;100101.94;5049143;28;19909;-85
2023/12/30 10:46:47;;;;;;;8.35;1.55;;;;;;;6.27;100.00;100160.50;5040769;28;20047;-84
2023/12/30 10:49:15;;;;;;;5.68;1.25;;;;;;;7.21;100.00;100176.97;5046499;28;20483;-85
2023/12/30 10:51:42;;;;;;;5.32;1.30;;;;;;;7.73;100.00;100084.00;5053445;28;20454;-85
2023/12/30 10:54:10;;;;;;;5.03;1.20;;;;;;;8.29;100.00;100036.41;5037060;28;20029;-84
2023/12/30 10:56:44;;;;;;;3.90;1.38;;;;;;;8.50;100.00;99916.25;5053265;28;20027;-85
2023/12/30 10:59:12;;;;;;;4.57;1.60;;;;;;;8.26;100.00;99819.53;5053575;28;20032;-85
2023/12/30 11:01:39;;;;;;;4.63;1.30;;;;;;;7.85;100.00;99731.91;5052574;28;20033;-85
2023/12/30 11:04:12;;;;;;;9.38;2.65;;;;;;;7.05;100.00;99679.53;5052918;28;20020;-84
2023/12/30 11:06:49;;;;;;;3.30;1.10;;;;;;;6.86;100.00;99724.94;5060688;28;20039;-85
2023/12/30 11:09:15;;;;;;;7.72;1.20;;;;;;;6.86;100.00;99821.31;5036405;28;20028;-85
2023/12/30 11:11:49;;;;;;;8.52;1.63;;;;;;;6.90;100.00;99874.88;5058348;28;20054;-83
2023/12/30 11:14:15;;;;;;;8.60;1.08;;;;;;;6.96;100.00;99879.56;5065109;28;20055;-85
2023/12/30 11:16:40;;;;;;;7.00;1.40;;;;;;;6.85;100.00;99840.03;5056624;28;20046;-81
2023/12/30 11:19:06;;;;;;;5.13;1.23;;;;;;;6.73;100.00;99818.28;5037193;28;20092;-83
2023/12/30 11:21:43;;;;;;;4.30;1.30;;;;;;;6.92;100.00;99899.44;5046885;28;20035;-83
2023/12/30 11:24:13;;;;;;;10.50;1.48;;;;;;;6.90;100.00;99890.78;5042021;28;20550;-83
2023/12/30 11:26:40;;;;;;;6.05;1.80;;;;;;;6.85;100.00;99882.50;5074102;28;20029;-85
2023/12/30 11:29:11;;;;;;;8.27;1.35;;;;;;;6.72;100.00;99889.06;5044735;28;20028;-84